TOM40LH EGCC-BIAR
Flight info
| Callsign | TOM40LH |
|---|---|
| Flight time | N/A |
| Altitude | 36000 |
| Route | POL N601 ERGAB DCT ERSON DCT BESGA DCT MATIK/M077F360 DCT 62N010W DCT MAMEP MAMEP1N |
| Aircraft | B738/M-SDE3FGHIRWY/LB1 |
Departure
| Time | N/A |
|---|---|
| Airport | Manchester Airport (EGCC) |
Arrival
| Time | 2026-04-21 00:28 |
|---|---|
| Airport | Akureyri International Airport (BIAR) |
| Time | Latitude | Longitude | Altitude | Speed | Heading |
|---|---|---|---|---|---|
| 2026-04-20 22:22 | 54.27580 | -2.48043 | 25783 ft | 335 kts | 336° |
| 2026-04-20 22:22 | 54.29703 | -2.49721 | 26071 ft | 337 kts | 336° |
| 2026-04-20 22:23 | 54.31830 | -2.51402 | 26346 ft | 338 kts | 336° |
| 2026-04-20 22:23 | 54.33975 | -2.53096 | 26602 ft | 340 kts | 335° |
| 2026-04-20 22:23 | 54.36153 | -2.54820 | 26630 ft | 349 kts | 335° |
| 2026-04-20 22:23 | 54.38391 | -2.56588 | 26653 ft | 361 kts | 335° |
| 2026-04-20 22:24 | 54.40704 | -2.58416 | 26890 ft | 368 kts | 335° |
| 2026-04-20 22:24 | 54.43020 | -2.60248 | 27083 ft | 378 kts | 335° |
| 2026-04-20 22:24 | 54.45478 | -2.62196 | 27172 ft | 390 kts | 335° |
| 2026-04-20 22:24 | 54.47967 | -2.64170 | 27337 ft | 398 kts | 335° |
| 2026-04-20 22:25 | 54.50501 | -2.66184 | 27569 ft | 404 kts | 335° |
| 2026-04-20 22:25 | 54.53042 | -2.68207 | 27679 ft | 413 kts | 335° |
| 2026-04-20 22:25 | 54.55686 | -2.70315 | 27753 ft | 424 kts | 335° |
| 2026-04-20 22:25 | 54.58393 | -2.72475 | 27817 ft | 434 kts | 335° |
| 2026-04-20 22:26 | 54.61153 | -2.74682 | 27875 ft | 443 kts | 335° |
| 2026-04-20 22:26 | 54.63976 | -2.76942 | 28021 ft | 449 kts | 335° |
| 2026-04-20 22:26 | 54.66815 | -2.79217 | 28341 ft | 451 kts | 335° |
| 2026-04-20 22:27 | 54.72421 | -2.83721 | 29797 ft | 432 kts | 335° |
| 2026-04-20 22:27 | 54.75118 | -2.85894 | 30442 ft | 427 kts | 335° |
| 2026-04-20 22:27 | 54.77789 | -2.88043 | 30668 ft | 431 kts | 335° |
| 2026-04-20 22:27 | 54.80523 | -2.90250 | 30864 ft | 435 kts | 335° |
| 2026-04-20 22:28 | 54.83276 | -2.92479 | 31115 ft | 438 kts | 335° |
| 2026-04-20 22:28 | 54.86037 | -2.94718 | 31387 ft | 440 kts | 334° |
| 2026-04-20 22:28 | 54.88814 | -2.96974 | 31639 ft | 442 kts | 335° |
| 2026-04-20 22:28 | 54.91606 | -2.99244 | 31890 ft | 443 kts | 335° |
| 2026-04-20 22:29 | 54.94401 | -3.01518 | 32142 ft | 445 kts | 335° |
| 2026-04-20 22:29 | 54.97217 | -3.03809 | 32351 ft | 448 kts | 335° |
| 2026-04-20 22:29 | 55.00039 | -3.06112 | 32576 ft | 450 kts | 335° |
| 2026-04-20 22:29 | 55.02882 | -3.08438 | 32812 ft | 451 kts | 335° |
| 2026-04-20 22:30 | 55.05688 | -3.10738 | 33051 ft | 453 kts | 335° |
| 2026-04-20 22:30 | 55.08544 | -3.13080 | 33250 ft | 455 kts | 335° |
| 2026-04-20 22:30 | 55.11413 | -3.15437 | 33436 ft | 457 kts | 334° |
| 2026-04-20 22:30 | 55.14289 | -3.17804 | 33651 ft | 458 kts | 335° |
| 2026-04-20 22:31 | 55.17177 | -3.20183 | 33855 ft | 459 kts | 335° |
| 2026-04-20 22:31 | 55.20076 | -3.22577 | 34028 ft | 461 kts | 335° |
| 2026-04-20 22:31 | 55.22982 | -3.24981 | 34200 ft | 463 kts | 335° |
| 2026-04-20 22:31 | 55.25896 | -3.27395 | 34363 ft | 465 kts | 335° |
| 2026-04-20 22:32 | 55.28791 | -3.29796 | 34534 ft | 466 kts | 335° |
| 2026-04-20 22:32 | 55.31722 | -3.32231 | 34701 ft | 467 kts | 335° |
| 2026-04-20 22:32 | 55.34664 | -3.34679 | 34851 ft | 469 kts | 335° |
| 2026-04-20 22:32 | 55.37616 | -3.37141 | 34980 ft | 470 kts | 335° |
| 2026-04-20 22:33 | 55.40579 | -3.39615 | 35101 ft | 472 kts | 335° |
| 2026-04-20 22:33 | 55.43546 | -3.42096 | 35220 ft | 473 kts | 335° |
| 2026-04-20 22:33 | 55.46524 | -3.44590 | 35339 ft | 474 kts | 335° |
| 2026-04-20 22:33 | 55.49502 | -3.47089 | 35484 ft | 474 kts | 335° |
| 2026-04-20 22:34 | 55.52415 | -3.49538 | 35926 ft | 467 kts | 335° |
| 2026-04-20 22:34 | 55.55324 | -3.51989 | 36393 ft | 460 kts | 335° |
| 2026-04-20 22:34 | 55.61081 | -3.56848 | 36434 ft | 455 kts | 335° |
| 2026-04-20 22:35 | 55.66758 | -3.61657 | 36432 ft | 450 kts | 335° |
| 2026-04-20 22:35 | 55.72402 | -3.66450 | 36444 ft | 449 kts | 335° |
| 2026-04-20 22:36 | 55.77997 | -3.71221 | 36445 ft | 449 kts | 335° |
| 2026-04-20 22:36 | 55.83627 | -3.76036 | 36445 ft | 449 kts | 335° |
| 2026-04-20 22:37 | 55.89262 | -3.80868 | 36443 ft | 450 kts | 335° |
| 2026-04-20 22:37 | 55.94911 | -3.85735 | 36446 ft | 451 kts | 335° |
| 2026-04-20 22:38 | 56.00579 | -3.90625 | 36444 ft | 453 kts | 335° |
| 2026-04-20 22:38 | 56.06225 | -3.95514 | 36446 ft | 454 kts | 335° |
| 2026-04-20 22:39 | 56.11920 | -4.00463 | 36446 ft | 456 kts | 335° |
| 2026-04-20 22:39 | 56.17626 | -4.05438 | 36451 ft | 456 kts | 335° |
| 2026-04-20 22:40 | 56.23347 | -4.10442 | 36449 ft | 457 kts | 335° |
| 2026-04-20 22:40 | 56.29023 | -4.15426 | 36448 ft | 457 kts | 335° |
| 2026-04-20 22:41 | 56.34738 | -4.20461 | 36447 ft | 457 kts | 335° |
| 2026-04-20 22:41 | 56.40448 | -4.25505 | 36455 ft | 457 kts | 335° |
| 2026-04-20 22:42 | 56.46154 | -4.30565 | 36459 ft | 456 kts | 335° |
| 2026-04-20 22:42 | 56.51931 | -4.35085 | 36464 ft | 454 kts | 339° |
| 2026-04-20 22:43 | 56.57812 | -4.39263 | 36466 ft | 454 kts | 340° |
| 2026-04-20 22:43 | 56.63678 | -4.43455 | 36470 ft | 453 kts | 340° |
| 2026-04-20 22:44 | 56.69523 | -4.47723 | 36461 ft | 452 kts | 339° |
| 2026-04-20 22:44 | 56.75347 | -4.52028 | 36475 ft | 451 kts | 339° |
| 2026-04-20 22:45 | 56.81130 | -4.56321 | 36465 ft | 452 kts | 339° |
| 2026-04-20 22:45 | 56.86942 | -4.60650 | 36481 ft | 451 kts | 339° |
| 2026-04-20 22:46 | 56.92756 | -4.64996 | 36489 ft | 451 kts | 339° |
| 2026-04-20 22:46 | 56.98566 | -4.69350 | 36488 ft | 452 kts | 339° |
| 2026-04-20 22:47 | 57.04381 | -4.73723 | 36488 ft | 452 kts | 339° |
| 2026-04-20 22:47 | 57.10201 | -4.78111 | 36496 ft | 452 kts | 340° |
| 2026-04-20 22:48 | 57.15980 | -4.82489 | 36498 ft | 453 kts | 340° |
| 2026-04-20 22:48 | 57.21809 | -4.86916 | 36491 ft | 453 kts | 339° |
| 2026-04-20 22:49 | 57.27648 | -4.91369 | 36504 ft | 454 kts | 340° |
| 2026-04-20 22:49 | 57.33466 | -4.95823 | 36496 ft | 449 kts | 340° |
| 2026-04-20 22:50 | 57.39158 | -5.00195 | 36489 ft | 446 kts | 340° |
| 2026-04-20 22:50 | 57.44923 | -5.04631 | 36496 ft | 451 kts | 340° |
| 2026-04-20 22:51 | 57.50743 | -5.09128 | 36507 ft | 455 kts | 340° |
| 2026-04-20 22:51 | 57.56615 | -5.13683 | 36489 ft | 459 kts | 340° |
| 2026-04-20 22:52 | 57.62514 | -5.18273 | 36493 ft | 460 kts | 340° |
| 2026-04-20 22:52 | 57.68386 | -5.22859 | 36496 ft | 460 kts | 340° |
| 2026-04-20 22:53 | 57.74284 | -5.27484 | 36497 ft | 459 kts | 340° |
| 2026-04-20 22:53 | 57.80120 | -5.32079 | 36487 ft | 451 kts | 340° |
| 2026-04-20 22:54 | 57.85882 | -5.36630 | 36491 ft | 448 kts | 340° |
| 2026-04-20 22:54 | 57.91584 | -5.41145 | 36489 ft | 447 kts | 340° |
| 2026-04-20 22:55 | 57.97310 | -5.45695 | 36485 ft | 446 kts | 340° |
| 2026-04-20 22:55 | 58.03018 | -5.50245 | 36491 ft | 445 kts | 340° |
| 2026-04-20 22:56 | 58.08733 | -5.54820 | 36492 ft | 447 kts | 340° |
| 2026-04-20 22:56 | 58.14456 | -5.59416 | 36489 ft | 448 kts | 340° |
| 2026-04-20 22:57 | 58.20166 | -5.64019 | 36489 ft | 450 kts | 340° |
| 2026-04-20 22:57 | 58.25930 | -5.68680 | 36488 ft | 451 kts | 340° |
| 2026-04-20 22:58 | 58.31711 | -5.73374 | 36489 ft | 453 kts | 340° |
| 2026-04-20 22:58 | 58.37504 | -5.78094 | 36488 ft | 454 kts | 340° |
| 2026-04-20 22:59 | 58.43315 | -5.82846 | 36488 ft | 454 kts | 340° |
| 2026-04-20 22:59 | 58.49085 | -5.87588 | 36485 ft | 454 kts | 340° |
| 2026-04-20 23:00 | 58.54888 | -5.92366 | 36487 ft | 454 kts | 340° |
| 2026-04-20 23:00 | 58.60677 | -5.97144 | 36496 ft | 453 kts | 340° |
| 2026-04-20 23:01 | 58.66456 | -6.01935 | 36492 ft | 452 kts | 340° |
| 2026-04-20 23:01 | 58.72175 | -6.06697 | 36494 ft | 450 kts | 340° |
| 2026-04-20 23:02 | 58.77912 | -6.11491 | 36494 ft | 449 kts | 340° |
| 2026-04-20 23:02 | 58.83631 | -6.16287 | 36498 ft | 447 kts | 340° |
| 2026-04-20 23:03 | 58.89320 | -6.21076 | 36511 ft | 445 kts | 340° |
| 2026-04-20 23:03 | 58.94978 | -6.25854 | 36507 ft | 442 kts | 340° |
| 2026-04-20 23:04 | 59.00558 | -6.30583 | 36491 ft | 439 kts | 340° |
| 2026-04-20 23:04 | 59.06136 | -6.35329 | 36490 ft | 437 kts | 340° |
| 2026-04-20 23:05 | 59.11695 | -6.40070 | 36508 ft | 436 kts | 340° |
| 2026-04-20 23:05 | 59.17245 | -6.44825 | 36509 ft | 435 kts | 340° |
| 2026-04-20 23:06 | 59.22749 | -6.49557 | 36481 ft | 435 kts | 341° |
| 2026-04-20 23:06 | 59.28290 | -6.54332 | 36490 ft | 435 kts | 340° |
| 2026-04-20 23:07 | 59.33835 | -6.59135 | 36513 ft | 437 kts | 340° |
| 2026-04-20 23:07 | 59.38458 | -6.63152 | 36517 ft | 438 kts | 340° |
| 2026-04-20 23:08 | 59.44941 | -6.68806 | 36502 ft | 439 kts | 340° |
| 2026-04-20 23:08 | 59.50519 | -6.73688 | 36496 ft | 438 kts | 341° |
| 2026-04-20 23:09 | 59.56084 | -6.78574 | 36520 ft | 438 kts | 340° |
| 2026-04-20 23:09 | 59.60700 | -6.82643 | 36522 ft | 437 kts | 340° |
| 2026-04-20 23:10 | 59.66240 | -6.87544 | 36516 ft | 435 kts | 340° |
| 2026-04-20 23:10 | 59.72653 | -6.93240 | 36517 ft | 433 kts | 340° |
| 2026-04-20 23:11 | 59.77215 | -6.97305 | 36520 ft | 432 kts | 340° |
| 2026-04-20 23:11 | 59.82681 | -7.02192 | 36530 ft | 430 kts | 340° |
| 2026-04-20 23:12 | 59.88126 | -7.07076 | 36529 ft | 429 kts | 340° |
| 2026-04-20 23:12 | 59.93560 | -7.11967 | 36538 ft | 428 kts | 340° |
| 2026-04-20 23:13 | 59.98978 | -7.16864 | 36543 ft | 427 kts | 340° |
| 2026-04-20 23:13 | 60.04350 | -7.21734 | 36545 ft | 427 kts | 341° |
| 2026-04-20 23:14 | 60.09756 | -7.26651 | 36538 ft | 426 kts | 341° |
| 2026-04-20 23:14 | 60.15148 | -7.31577 | 36547 ft | 425 kts | 341° |
| 2026-04-20 23:15 | 60.20528 | -7.36507 | 36566 ft | 425 kts | 341° |
| 2026-04-20 23:15 | 60.25906 | -7.41460 | 36570 ft | 425 kts | 341° |
| 2026-04-20 23:16 | 60.31239 | -7.46382 | 36581 ft | 424 kts | 341° |
| 2026-04-20 23:16 | 60.36608 | -7.51359 | 36587 ft | 424 kts | 340° |
| 2026-04-20 23:17 | 60.41973 | -7.56352 | 36597 ft | 424 kts | 340° |
| 2026-04-20 23:17 | 60.47338 | -7.61358 | 36600 ft | 425 kts | 340° |
| 2026-04-20 23:18 | 60.52672 | -7.66355 | 36608 ft | 425 kts | 340° |
| 2026-04-20 23:18 | 60.58041 | -7.71408 | 36612 ft | 426 kts | 340° |
| 2026-04-20 23:19 | 60.63417 | -7.76482 | 36613 ft | 426 kts | 340° |
| 2026-04-20 23:19 | 60.68795 | -7.81577 | 36615 ft | 426 kts | 340° |
| 2026-04-20 23:20 | 60.74168 | -7.86686 | 36624 ft | 426 kts | 340° |
| 2026-04-20 23:20 | 60.79507 | -7.91752 | 36624 ft | 425 kts | 342° |
| 2026-04-20 23:21 | 60.85025 | -7.95886 | 36630 ft | 421 kts | 346° |
| 2026-04-20 23:21 | 60.90567 | -7.99764 | 36635 ft | 421 kts | 346° |
| 2026-04-20 23:22 | 60.96076 | -8.03791 | 36639 ft | 420 kts | 346° |
| 2026-04-20 23:22 | 61.01305 | -8.09136 | 36647 ft | 429 kts | 330° |
| 2026-04-20 23:23 | 61.05829 | -8.17340 | 36639 ft | 434 kts | 323° |
| 2026-04-20 23:23 | 61.10273 | -8.25727 | 36639 ft | 432 kts | 323° |
| 2026-04-20 23:24 | 61.14719 | -8.34074 | 36640 ft | 431 kts | 324° |
| 2026-04-20 23:24 | 61.19146 | -8.42366 | 36649 ft | 428 kts | 324° |
| 2026-04-20 23:25 | 61.23519 | -8.50598 | 36651 ft | 427 kts | 324° |
| 2026-04-20 23:25 | 61.27906 | -8.58892 | 36643 ft | 426 kts | 324° |
| 2026-04-20 23:26 | 61.32288 | -8.67204 | 36649 ft | 427 kts | 324° |
| 2026-04-20 23:26 | 61.36669 | -8.75545 | 36650 ft | 427 kts | 323° |
| 2026-04-20 23:27 | 61.41018 | -8.83858 | 36650 ft | 427 kts | 323° |
| 2026-04-20 23:27 | 61.45398 | -8.92268 | 36653 ft | 429 kts | 323° |
| 2026-04-20 23:28 | 61.49781 | -9.00729 | 36658 ft | 428 kts | 323° |
| 2026-04-20 23:28 | 61.54161 | -9.09189 | 36661 ft | 428 kts | 323° |
| 2026-04-20 23:29 | 61.58503 | -9.17620 | 36661 ft | 428 kts | 323° |
| 2026-04-20 23:29 | 61.62865 | -9.26141 | 36663 ft | 428 kts | 323° |
| 2026-04-20 23:30 | 61.67213 | -9.34670 | 36656 ft | 427 kts | 323° |
| 2026-04-20 23:30 | 61.71561 | -9.43208 | 36669 ft | 427 kts | 323° |
| 2026-04-20 23:31 | 61.75886 | -9.51753 | 36652 ft | 426 kts | 323° |
| 2026-04-20 23:31 | 61.80172 | -9.60236 | 36661 ft | 424 kts | 323° |
| 2026-04-20 23:32 | 61.84471 | -9.68794 | 36659 ft | 423 kts | 323° |
| 2026-04-20 23:32 | 61.88753 | -9.77353 | 36664 ft | 423 kts | 323° |
| 2026-04-20 23:33 | 61.92999 | -9.85881 | 36657 ft | 423 kts | 323° |
| 2026-04-20 23:33 | 61.97263 | -9.94459 | 36660 ft | 422 kts | 323° |
| 2026-04-20 23:34 | 62.01565 | -10.02918 | 36656 ft | 419 kts | 327° |
| 2026-04-20 23:34 | 62.06119 | -10.10567 | 36661 ft | 416 kts | 329° |
| 2026-04-20 23:35 | 62.12984 | -10.21761 | 36661 ft | 416 kts | 329° |
| 2026-04-20 23:36 | 62.17553 | -10.29372 | 36665 ft | 417 kts | 328° |
| 2026-04-20 23:36 | 62.22116 | -10.37063 | 36674 ft | 417 kts | 328° |
| 2026-04-20 23:37 | 62.26674 | -10.44791 | 36659 ft | 418 kts | 328° |
| 2026-04-20 23:37 | 62.31200 | -10.52500 | 36664 ft | 418 kts | 328° |
| 2026-04-20 23:38 | 62.35748 | -10.60277 | 36679 ft | 418 kts | 328° |
| 2026-04-20 23:38 | 62.40295 | -10.68082 | 36665 ft | 418 kts | 327° |
| 2026-04-20 23:39 | 62.44836 | -10.75905 | 36679 ft | 418 kts | 327° |
| 2026-04-20 23:39 | 62.49376 | -10.83757 | 36665 ft | 418 kts | 327° |
| 2026-04-20 23:40 | 62.53874 | -10.91572 | 36683 ft | 417 kts | 327° |
| 2026-04-20 23:40 | 62.58398 | -10.99458 | 36670 ft | 417 kts | 327° |
| 2026-04-20 23:41 | 62.62907 | -11.07357 | 36674 ft | 416 kts | 327° |
| 2026-04-20 23:41 | 62.67406 | -11.15266 | 36681 ft | 416 kts | 327° |
| 2026-04-20 23:42 | 62.71861 | -11.23143 | 36680 ft | 415 kts | 327° |
| 2026-04-20 23:42 | 62.76342 | -11.31079 | 36673 ft | 415 kts | 327° |
| 2026-04-20 23:43 | 62.80814 | -11.39030 | 36675 ft | 414 kts | 327° |
| 2026-04-20 23:43 | 62.85279 | -11.47004 | 36677 ft | 415 kts | 327° |
| 2026-04-20 23:44 | 62.89742 | -11.55006 | 36680 ft | 414 kts | 326° |
| 2026-04-20 23:44 | 62.94199 | -11.63038 | 36684 ft | 415 kts | 326° |
| 2026-04-20 23:45 | 62.98621 | -11.71037 | 36678 ft | 414 kts | 326° |
| 2026-04-20 23:45 | 63.03070 | -11.79111 | 36676 ft | 414 kts | 326° |
| 2026-04-20 23:46 | 63.07498 | -11.87187 | 36685 ft | 413 kts | 326° |
| 2026-04-20 23:46 | 63.11924 | -11.95288 | 36690 ft | 413 kts | 326° |
| 2026-04-20 23:47 | 63.16339 | -12.03401 | 36688 ft | 413 kts | 326° |
| 2026-04-20 23:47 | 63.20717 | -12.11481 | 36687 ft | 412 kts | 325° |
| 2026-04-20 23:48 | 63.25118 | -12.19635 | 36685 ft | 412 kts | 325° |
| 2026-04-20 23:48 | 63.29504 | -12.27796 | 36689 ft | 411 kts | 325° |
| 2026-04-20 23:49 | 63.33881 | -12.35977 | 36689 ft | 411 kts | 325° |
| 2026-04-20 23:49 | 63.38225 | -12.44129 | 36693 ft | 410 kts | 325° |
| 2026-04-20 23:50 | 63.42587 | -12.52346 | 36693 ft | 410 kts | 325° |
| 2026-04-20 23:50 | 63.46935 | -12.60575 | 36694 ft | 410 kts | 324° |
| 2026-04-20 23:51 | 63.51292 | -12.68841 | 36699 ft | 411 kts | 324° |
| 2026-04-20 23:51 | 63.55613 | -12.77083 | 36695 ft | 411 kts | 324° |
| 2026-04-20 23:52 | 63.59963 | -12.85419 | 36693 ft | 411 kts | 324° |
| 2026-04-20 23:52 | 63.64313 | -12.93791 | 36699 ft | 412 kts | 324° |
| 2026-04-20 23:53 | 63.68663 | -13.02194 | 36704 ft | 412 kts | 324° |
| 2026-04-20 23:53 | 63.73008 | -13.10619 | 36706 ft | 412 kts | 324° |
| 2026-04-20 23:54 | 63.77324 | -13.19024 | 36703 ft | 412 kts | 324° |
| 2026-04-20 23:54 | 63.81665 | -13.27513 | 36709 ft | 412 kts | 323° |
| 2026-04-20 23:55 | 63.86003 | -13.36041 | 36703 ft | 413 kts | 323° |
| 2026-04-20 23:55 | 63.90337 | -13.44586 | 36702 ft | 413 kts | 323° |
| 2026-04-20 23:56 | 63.94666 | -13.53161 | 36707 ft | 413 kts | 323° |
| 2026-04-20 23:56 | 63.98959 | -13.61699 | 36706 ft | 412 kts | 323° |
| 2026-04-20 23:57 | 64.03269 | -13.70311 | 36717 ft | 412 kts | 323° |
| 2026-04-20 23:57 | 64.07572 | -13.78945 | 36708 ft | 411 kts | 322° |
| 2026-04-20 23:58 | 64.11851 | -13.87571 | 36697 ft | 404 kts | 322° |
| 2026-04-20 23:58 | 64.15956 | -13.95893 | 36701 ft | 393 kts | 323° |
| 2026-04-20 23:59 | 64.20034 | -14.04174 | 36700 ft | 391 kts | 322° |
| 2026-04-20 23:59 | 64.24097 | -14.12467 | 36695 ft | 390 kts | 322° |
| 2026-04-21 00:00 | 64.28144 | -14.20747 | 36698 ft | 389 kts | 322° |
| 2026-04-21 00:00 | 64.32151 | -14.28983 | 36697 ft | 389 kts | 322° |
| 2026-04-21 00:01 | 64.36186 | -14.37317 | 36704 ft | 389 kts | 322° |
| 2026-04-21 00:01 | 64.40215 | -14.45665 | 36707 ft | 390 kts | 322° |
| 2026-04-21 00:02 | 64.44249 | -14.54066 | 36714 ft | 390 kts | 321° |
| 2026-04-21 00:02 | 64.48284 | -14.62500 | 36713 ft | 391 kts | 321° |
| 2026-04-21 00:03 | 64.52296 | -14.70928 | 36706 ft | 392 kts | 321° |
| 2026-04-21 00:03 | 64.56348 | -14.79472 | 36704 ft | 393 kts | 321° |
| 2026-04-21 00:04 | 64.60402 | -14.88052 | 36698 ft | 394 kts | 321° |
| 2026-04-21 00:04 | 64.64447 | -14.96654 | 36709 ft | 395 kts | 320° |
| 2026-04-21 00:05 | 64.68471 | -15.05245 | 36697 ft | 395 kts | 320° |
| 2026-04-21 00:05 | 64.72511 | -15.13912 | 36707 ft | 394 kts | 320° |
| 2026-04-21 00:06 | 64.76544 | -15.22599 | 36703 ft | 394 kts | 320° |
| 2026-04-21 00:06 | 64.80474 | -15.31098 | 36707 ft | 393 kts | 320° |
| 2026-04-21 00:06 | 64.82476 | -15.35441 | 36572 ft | 393 kts | 320° |
| 2026-04-21 00:07 | 64.84443 | -15.39717 | 36447 ft | 389 kts | 320° |
| 2026-04-21 00:07 | 64.86423 | -15.44029 | 36267 ft | 388 kts | 320° |
| 2026-04-21 00:07 | 64.88418 | -15.48379 | 36048 ft | 392 kts | 320° |
| 2026-04-21 00:07 | 64.90422 | -15.52761 | 35823 ft | 394 kts | 320° |
| 2026-04-21 00:08 | 64.92435 | -15.57172 | 35611 ft | 396 kts | 320° |
| 2026-04-21 00:08 | 64.94440 | -15.61579 | 35375 ft | 391 kts | 320° |
| 2026-04-21 00:08 | 64.96416 | -15.65935 | 35136 ft | 385 kts | 320° |
| 2026-04-21 00:08 | 64.98358 | -15.70222 | 34914 ft | 379 kts | 320° |
| 2026-04-21 00:09 | 65.00272 | -15.74457 | 34685 ft | 376 kts | 320° |
| 2026-04-21 00:09 | 65.02174 | -15.78670 | 34466 ft | 373 kts | 319° |
| 2026-04-21 00:09 | 65.04063 | -15.82863 | 34240 ft | 371 kts | 319° |
| 2026-04-21 00:09 | 65.05936 | -15.87029 | 34014 ft | 369 kts | 319° |
| 2026-04-21 00:10 | 65.07776 | -15.91128 | 33782 ft | 367 kts | 318° |
| 2026-04-21 00:10 | 65.09639 | -15.95288 | 33376 ft | 370 kts | 318° |
| 2026-04-21 00:10 | 65.11518 | -15.99491 | 32977 ft | 371 kts | 318° |
| 2026-04-21 00:10 | 65.13383 | -16.03669 | 32556 ft | 366 kts | 318° |
| 2026-04-21 00:11 | 65.15220 | -16.07795 | 32127 ft | 359 kts | 317° |
| 2026-04-21 00:11 | 65.17016 | -16.11842 | 31683 ft | 354 kts | 317° |
| 2026-04-21 00:11 | 65.18799 | -16.15867 | 31266 ft | 352 kts | 317° |
| 2026-04-21 00:11 | 65.20565 | -16.19858 | 30844 ft | 351 kts | 317° |
| 2026-04-21 00:12 | 65.22332 | -16.23857 | 30421 ft | 349 kts | 317° |
| 2026-04-21 00:12 | 65.24061 | -16.27783 | 30014 ft | 348 kts | 317° |
| 2026-04-21 00:12 | 65.25808 | -16.31754 | 29582 ft | 346 kts | 317° |
| 2026-04-21 00:12 | 65.27560 | -16.35745 | 29177 ft | 351 kts | 317° |
| 2026-04-21 00:13 | 65.29329 | -16.39778 | 28618 ft | 350 kts | 317° |
| 2026-04-21 00:13 | 65.31077 | -16.43775 | 28074 ft | 346 kts | 317° |
| 2026-04-21 00:13 | 65.32805 | -16.47735 | 27496 ft | 343 kts | 317° |
| 2026-04-21 00:13 | 65.34517 | -16.51666 | 26922 ft | 339 kts | 317° |
| 2026-04-21 00:14 | 65.36213 | -16.55567 | 26346 ft | 336 kts | 317° |
| 2026-04-21 00:14 | 65.37891 | -16.59435 | 25770 ft | 333 kts | 317° |
| 2026-04-21 00:14 | 65.39555 | -16.63279 | 25200 ft | 331 kts | 317° |
| 2026-04-21 00:14 | 65.41219 | -16.67125 | 24639 ft | 334 kts | 317° |
| 2026-04-21 00:15 | 65.42900 | -16.71018 | 24073 ft | 338 kts | 317° |
| 2026-04-21 00:15 | 65.44502 | -16.74728 | 23551 ft | 341 kts | 317° |
| 2026-04-21 00:15 | 65.46222 | -16.78708 | 22973 ft | 345 kts | 317° |
| 2026-04-21 00:15 | 65.47959 | -16.82744 | 22407 ft | 349 kts | 317° |
| 2026-04-21 00:16 | 65.49708 | -16.86826 | 21835 ft | 351 kts | 317° |
| 2026-04-21 00:16 | 65.51470 | -16.90948 | 21233 ft | 355 kts | 316° |
| 2026-04-21 00:16 | 65.53251 | -16.95124 | 20655 ft | 360 kts | 315° |
| 2026-04-21 00:16 | 65.55048 | -16.99351 | 20537 ft | 361 kts | 316° |
| 2026-04-21 00:17 | 65.56851 | -17.03602 | 19965 ft | 363 kts | 316° |
| 2026-04-21 00:17 | 65.58662 | -17.07876 | 19414 ft | 364 kts | 316° |
| 2026-04-21 00:17 | 65.60475 | -17.12164 | 18845 ft | 366 kts | 316° |
| 2026-04-21 00:17 | 65.62297 | -17.16475 | 18226 ft | 366 kts | 315° |
| 2026-04-21 00:18 | 65.64091 | -17.20738 | 17622 ft | 367 kts | 315° |
| 2026-04-21 00:18 | 65.65909 | -17.25063 | 17034 ft | 367 kts | 315° |
| 2026-04-21 00:18 | 65.67726 | -17.29392 | 16438 ft | 366 kts | 315° |
| 2026-04-21 00:18 | 65.69542 | -17.33727 | 15858 ft | 366 kts | 315° |
| 2026-04-21 00:19 | 65.71265 | -17.38260 | 15293 ft | 365 kts | 309° |
| 2026-04-21 00:19 | 65.72801 | -17.43143 | 14752 ft | 363 kts | 306° |
| 2026-04-21 00:19 | 65.74288 | -17.48098 | 14158 ft | 362 kts | 306° |
| 2026-04-21 00:19 | 65.75776 | -17.53027 | 13551 ft | 359 kts | 306° |
| 2026-04-21 00:20 | 65.77248 | -17.57830 | 12938 ft | 348 kts | 307° |
| 2026-04-21 00:20 | 65.78689 | -17.62475 | 12334 ft | 339 kts | 307° |
| 2026-04-21 00:20 | 65.80077 | -17.66919 | 11771 ft | 330 kts | 307° |
| 2026-04-21 00:20 | 65.81451 | -17.71315 | 11201 ft | 323 kts | 307° |
| 2026-04-21 00:21 | 65.82796 | -17.75630 | 10648 ft | 316 kts | 307° |
| 2026-04-21 00:21 | 65.83993 | -17.80012 | 10217 ft | 305 kts | 293° |
| 2026-04-21 00:21 | 65.84365 | -17.84975 | 9836 ft | 295 kts | 270° |
| 2026-04-21 00:21 | 65.84321 | -17.89923 | 9447 ft | 287 kts | 270° |
| 2026-04-21 00:22 | 65.84289 | -17.94730 | 9041 ft | 279 kts | 270° |
| 2026-04-21 00:22 | 65.84257 | -17.99406 | 8688 ft | 272 kts | 270° |
| 2026-04-21 00:22 | 65.84229 | -18.03980 | 8293 ft | 267 kts | 269° |
| 2026-04-21 00:22 | 65.84105 | -18.08454 | 7880 ft | 261 kts | 257° |
| 2026-04-21 00:23 | 65.83176 | -18.12110 | 7449 ft | 256 kts | 220° |
| 2026-04-21 00:23 | 65.81537 | -18.13542 | 7007 ft | 254 kts | 181° |
| 2026-04-21 00:23 | 65.79868 | -18.12591 | 6609 ft | 246 kts | 163° |
| 2026-04-21 00:23 | 65.78225 | -18.11517 | 6042 ft | 244 kts | 170° |
| 2026-04-21 00:24 | 65.76568 | -18.10913 | 5430 ft | 240 kts | 182° |
| 2026-04-21 00:24 | 65.75039 | -18.12002 | 5077 ft | 224 kts | 216° |
| 2026-04-21 00:24 | 65.74098 | -18.14776 | 4770 ft | 209 kts | 250° |
| 2026-04-21 00:24 | 65.74124 | -18.18151 | 4439 ft | 210 kts | 295° |
| 2026-04-21 00:25 | 65.75236 | -18.20468 | 3903 ft | 218 kts | 344° |
| 2026-04-21 00:25 | 65.76686 | -18.20116 | 3572 ft | 222 kts | 33° |
| 2026-04-21 00:25 | 65.77587 | -18.17065 | 2938 ft | 234 kts | 79° |
| 2026-04-21 00:25 | 65.77413 | -18.13454 | 2756 ft | 207 kts | 116° |
| 2026-04-21 00:26 | 65.76523 | -18.10941 | 2275 ft | 193 kts | 146° |
| 2026-04-21 00:26 | 65.75383 | -18.09479 | 1797 ft | 184 kts | 162° |
| 2026-04-21 00:26 | 65.74122 | -18.08874 | 1253 ft | 186 kts | 175° |
| 2026-04-21 00:26 | 65.72998 | -18.08761 | 1213 ft | 153 kts | 181° |
| 2026-04-21 00:27 | 65.72020 | -18.08835 | 1163 ft | 128 kts | 179° |
| 2026-04-21 00:27 | 65.71119 | -18.08473 | 1118 ft | 133 kts | 169° |
| 2026-04-21 00:27 | 65.70229 | -18.08166 | 961 ft | 127 kts | 176° |
| 2026-04-21 00:27 | 65.69309 | -18.08004 | 772 ft | 133 kts | 176° |
| 2026-04-21 00:28 | 65.68377 | -18.07742 | 522 ft | 137 kts | 173° |
| 2026-04-21 00:28 | 65.67460 | -18.07570 | 285 ft | 132 kts | 178° |
| 2026-04-21 00:28 | 65.66566 | -18.07389 | 27 ft | 126 kts | 178° |
| 2026-04-21 00:28 | 65.65922 | -18.07254 | 16 ft | 42 kts | 175° |
| 2026-04-21 00:29 | 65.65684 | -18.07210 | 18 ft | 36 kts | 175° |
| 2026-04-21 00:29 | 65.65538 | -18.07183 | 18 ft | 11 kts | 175° |
| 2026-04-21 00:29 | 65.65481 | -18.07276 | 16 ft | 11 kts | 252° |
| 2026-04-21 00:29 | 65.65475 | -18.07373 | 18 ft | 3 kts | 262° |
| 2026-04-21 00:30 | 65.65457 | -18.07402 | 19 ft | 3 kts | 192° |
| 2026-04-21 00:30 | 65.65433 | -18.07409 | 16 ft | 4 kts | 186° |
| 2026-04-21 00:30 | 65.65409 | -18.07416 | 16 ft | 4 kts | 199° |
| 2026-04-21 00:30 | 65.65410 | -18.07465 | 16 ft | 3 kts | 323° |
| 2026-04-21 00:31 | 65.65434 | -18.07478 | 16 ft | 4 kts | 344° |
| 2026-04-21 00:31 | 65.65436 | -18.07479 | 16 ft | 0 kts | 344° |
| 2026-04-21 00:32 | 65.65440 | -18.07479 | 16 ft | 1 kts | 354° |
| 2026-04-21 00:32 | 65.65453 | -18.07479 | 16 ft | 3 kts | 10° |
| 2026-04-21 00:33 | 65.65464 | -18.07439 | 16 ft | 3 kts | 96° |
| 2026-04-21 00:33 | 65.65440 | -18.07390 | 16 ft | 7 kts | 142° |
| 2026-04-21 00:33 | 65.65394 | -18.07371 | 18 ft | 3 kts | 220° |
| 2026-04-21 00:33 | 65.65389 | -18.07428 | 16 ft | 4 kts | 261° |
| 2026-04-21 00:34 | 65.65399 | -18.07486 | 16 ft | 4 kts | 336° |
| 2026-04-21 00:34 | 65.65414 | -18.07484 | 16 ft | 0 kts | 8° |